Time;durP1;ratioP1;P1;durP2;ratioP2;P2;SDS_P1;SDS_P2;PMS_P1;PMS_P2;Temp;Humidity;BMP_temperature;BMP_pressure;BME280_temperature;BME280_humidity;BME280_pressure;Samples;Min_cycle;Max_cycle;Signal;HPM_P1;HPM_P2
2023/12/15 00:00:14;;;;;;;2.27;1.80;;;;;;;6.83;71.77;97102.75;4992577;28;20197;-68
2023/12/15 00:02:40;;;;;;;2.70;2.10;;;;;;;6.88;70.80;97106.16;4994132;28;20423;-68
2023/12/15 00:05:05;;;;;;;2.33;2.00;;;;;;;6.68;71.66;97116.06;4993596;28;20832;-69
2023/12/15 00:07:31;;;;;;;3.13;2.83;;;;;;;6.73;71.47;97114.22;4991539;28;20256;-69
2023/12/15 00:09:56;;;;;;;2.43;2.23;;;;;;;6.69;71.92;97117.78;4991505;28;20184;-70
2023/12/15 00:12:22;;;;;;;2.73;2.50;;;;;;;6.73;72.04;97127.28;4991459;28;20231;-69
2023/12/15 00:14:47;;;;;;;2.10;1.90;;;;;;;6.69;71.77;97133.44;4991414;28;20176;-70
2023/12/15 00:17:12;;;;;;;3.20;2.80;;;;;;;6.58;72.19;97131.84;4990783;28;20196;-68
2023/12/15 00:19:38;;;;;;;3.20;2.50;;;;;;;6.82;71.65;97140.16;4990938;28;20177;-68
2023/12/15 00:22:03;;;;;;;4.53;2.03;;;;;;;6.75;71.41;97135.94;4991331;28;20264;-71
2023/12/15 00:24:28;;;;;;;5.63;2.57;;;;;;;6.68;71.16;97139.53;4990977;28;20169;-68
2023/12/15 00:26:54;;;;;;;4.83;2.57;;;;;;;6.71;70.32;97134.28;4991092;28;21003;-68
2023/12/15 00:29:20;;;;;;;4.80;2.60;;;;;;;6.73;70.98;97135.97;4972974;28;20182;-69
2023/12/15 00:31:45;;;;;;;5.60;2.63;;;;;;;6.76;70.92;97142.88;4971222;28;20205;-69
2023/12/15 00:34:11;;;;;;;8.20;3.07;;;;;;;6.68;70.25;97142.13;4971402;28;20430;-70
2023/12/15 00:36:36;;;;;;;7.20;2.83;;;;;;;6.61;70.04;97143.13;4971461;28;20177;-68
2023/12/15 00:39:02;;;;;;;5.20;3.80;;;;;;;6.41;70.74;97159.09;4971577;28;20292;-70
2023/12/15 00:41:27;;;;;;;4.20;3.07;;;;;;;6.49;70.73;97165.91;4972597;28;20200;-69
2023/12/15 00:43:52;;;;;;;5.03;3.57;;;;;;;6.49;69.48;97168.50;4971163;28;20180;-69
2023/12/15 00:46:18;;;;;;;3.97;3.23;;;;;;;6.53;69.62;97167.59;4971149;28;20174;-68
2023/12/15 00:48:43;;;;;;;5.30;4.00;;;;;;;6.48;69.91;97165.94;4971313;28;20197;-71
2023/12/15 00:51:08;;;;;;;5.20;3.70;;;;;;;6.36;70.37;97167.00;4975257;28;20186;-69
2023/12/15 00:53:34;;;;;;;4.00;3.27;;;;;;;6.24;71.06;97170.63;4977813;28;20264;-69
2023/12/15 00:56:02;;;;;;;5.83;4.30;;;;;;;6.18;71.19;97178.53;4978883;28;20193;-68
2023/12/15 00:58:28;;;;;;;3.60;3.30;;;;;;;6.21;71.14;97188.03;4977663;28;20706;-70
2023/12/15 01:00:53;;;;;;;4.20;3.80;;;;;;;6.12;71.34;97186.44;4975717;28;20445;-69
2023/12/15 01:03:19;;;;;;;4.97;3.73;;;;;;;6.14;71.71;97184.66;4976436;28;20174;-70
2023/12/15 01:05:44;;;;;;;4.73;3.47;;;;;;;6.13;71.20;97182.94;4972538;28;20181;-68
2023/12/15 01:08:10;;;;;;;3.50;3.20;;;;;;;6.10;71.28;97194.28;4971202;28;20265;-69
2023/12/15 01:10:35;;;;;;;3.93;3.53;;;;;;;6.05;71.28;97195.22;4970809;28;20201;-70
2023/12/15 01:13:01;;;;;;;4.87;4.20;;;;;;;5.99;71.78;97201.38;4970817;28;20756;-70
2023/12/15 01:15:26;;;;;;;4.20;3.80;;;;;;;6.20;70.92;97195.00;4971202;28;20208;-70
2023/12/15 01:17:51;;;;;;;4.27;3.87;;;;;;;6.05;70.59;97206.50;4970822;28;20197;-68
2023/12/15 01:20:17;;;;;;;5.90;4.23;;;;;;;5.88;70.95;97208.41;4970812;28;20276;-68
2023/12/15 01:22:43;;;;;;;5.20;3.70;;;;;;;5.89;71.46;97220.56;4969576;28;20598;-69
2023/12/15 01:25:09;;;;;;;4.87;4.43;;;;;;;5.78;71.45;97222.44;4971005;28;20169;-70
2023/12/15 01:27:34;;;;;;;6.83;4.43;;;;;;;5.87;71.49;97219.72;4975066;28;20520;-69
2023/12/15 01:30:00;;;;;;;4.90;4.20;;;;;;;5.90;71.13;97227.50;4990588;28;20428;-70
2023/12/15 01:32:25;;;;;;;6.73;4.30;;;;;;;5.85;71.21;97229.31;4989277;28;20254;-69
2023/12/15 01:34:50;;;;;;;6.77;4.63;;;;;;;5.94;71.11;97234.44;4990741;28;20184;-68
2023/12/15 01:37:16;;;;;;;6.57;5.03;;;;;;;5.81;71.06;97240.63;4990688;28;20247;-70
2023/12/15 01:39:41;;;;;;;4.53;3.90;;;;;;;5.67;71.86;97249.47;4990064;28;20177;-69
2023/12/15 01:42:06;;;;;;;5.20;3.93;;;;;;;5.83;71.00;97264.91;4988640;28;20268;-70
2023/12/15 01:44:33;;;;;;;7.50;5.07;;;;;;;5.72;71.63;97268.50;5002642;28;20181;-70
2023/12/15 01:46:59;;;;;;;7.10;4.77;;;;;;;5.78;71.86;97278.00;4995222;28;20215;-69
2023/12/15 01:49:27;;;;;;;5.53;4.07;;;;;;;5.99;70.77;97278.66;4992843;28;20419;-69
2023/12/15 01:51:52;;;;;;;6.67;5.97;;;;;;;6.00;70.53;97276.06;4991778;28;20923;-68
2023/12/15 01:54:17;;;;;;;5.03;4.13;;;;;;;5.87;71.01;97295.28;4991999;28;20411;-68
2023/12/15 01:56:43;;;;;;;10.67;5.40;;;;;;;5.93;70.99;97297.81;4991564;28;20193;-68
2023/12/15 01:59:10;;;;;;;11.87;5.00;;;;;;;5.96;70.46;97303.03;4990958;28;20275;-69
2023/12/15 02:01:36;;;;;;;9.10;5.03;;;;;;;5.99;70.01;97307.34;4990527;28;20196;-69
2023/12/15 02:04:01;;;;;;;12.70;5.73;;;;;;;6.06;70.33;97307.22;4990129;28;20415;-69
2023/12/15 02:06:26;;;;;;;9.87;7.37;;;;;;;6.07;70.42;97314.19;4989834;28;20719;-70
2023/12/15 02:08:52;;;;;;;7.50;5.83;;;;;;;6.04;70.09;97324.63;4989982;28;20180;-68
2023/12/15 02:11:18;;;;;;;7.30;5.47;;;;;;;6.05;69.95;97321.16;4989554;28;20562;-68
2023/12/15 02:13:43;;;;;;;5.03;4.43;;;;;;;6.07;70.32;97326.34;4989534;28;20427;-69
2023/12/15 02:16:08;;;;;;;11.10;5.43;;;;;;;6.02;70.23;97326.38;4989449;28;20235;-69
2023/12/15 02:18:34;;;;;;;6.60;5.50;;;;;;;6.09;70.22;97328.03;4989529;28;20204;-69
2023/12/15 02:20:59;;;;;;;7.67;5.40;;;;;;;6.06;70.85;97322.88;4988898;28;20220;-68
2023/12/15 02:23:24;;;;;;;6.90;4.67;;;;;;;6.08;70.70;97331.53;4989590;28;20260;-68
2023/12/15 02:25:50;;;;;;;7.77;5.50;;;;;;;6.10;70.92;97336.75;4989442;28;20185;-68
2023/12/15 02:28:15;;;;;;;10.27;5.20;;;;;;;6.07;71.41;97337.66;4980190;28;20645;-69
2023/12/15 02:30:41;;;;;;;9.63;5.20;;;;;;;6.12;71.93;97346.28;4970170;28;20251;-69
2023/12/15 02:33:06;;;;;;;8.17;5.17;;;;;;;6.04;71.53;97344.63;4970507;28;20509;-69
2023/12/15 02:35:31;;;;;;;7.47;5.20;;;;;;;6.11;71.71;97347.13;4970489;28;20169;-69
2023/12/15 02:37:57;;;;;;;7.83;5.53;;;;;;;6.10;71.62;97352.38;4970354;28;20291;-70
2023/12/15 02:40:22;;;;;;;7.77;5.77;;;;;;;5.99;72.27;97356.84;4970118;28;20211;-68
2023/12/15 02:42:48;;;;;;;10.13;5.70;;;;;;;6.01;71.74;97355.94;4971628;28;20612;-70
2023/12/15 02:45:13;;;;;;;6.73;4.93;;;;;;;6.03;72.06;97356.78;4970170;28;20224;-68
2023/12/15 02:47:38;;;;;;;10.60;5.33;;;;;;;5.95;72.10;97366.41;4969542;28;20181;-68
2023/12/15 02:50:04;;;;;;;10.80;5.37;;;;;;;6.09;71.55;97361.06;4970004;28;20259;-69
2023/12/15 02:52:30;;;;;;;9.17;6.67;;;;;;;6.01;71.93;97371.56;4970451;28;20216;-69
2023/12/15 02:54:55;;;;;;;7.10;5.80;;;;;;;6.07;71.71;97366.31;4970119;28;20197;-69
2023/12/15 02:57:20;;;;;;;7.57;5.07;;;;;;;6.01;71.58;97376.78;4968885;28;20200;-70
2023/12/15 02:59:46;;;;;;;10.83;5.70;;;;;;;6.01;71.92;97381.13;4970000;28;20634;-71
2023/12/15 03:02:11;;;;;;;8.07;4.53;;;;;;;6.10;72.20;97386.25;4970120;28;20178;-70
2023/12/15 03:04:36;;;;;;;5.60;4.20;;;;;;;6.12;71.55;97393.19;4970161;28;20184;-70
2023/12/15 03:07:02;;;;;;;7.30;4.57;;;;;;;5.97;72.17;97389.84;4970235;28;20201;-70
2023/12/15 03:09:27;;;;;;;4.90;3.93;;;;;;;5.95;71.63;97392.47;4969902;28;20810;-69
2023/12/15 03:11:53;;;;;;;7.10;5.60;;;;;;;5.98;71.50;97402.03;4969889;28;20575;-67
2023/12/15 03:14:18;;;;;;;6.97;5.00;;;;;;;6.07;71.25;97401.91;4970138;28;20182;-68
2023/12/15 03:16:43;;;;;;;5.47;4.60;;;;;;;6.08;71.95;97403.66;4969834;28;20233;-70
2023/12/15 03:19:09;;;;;;;8.33;5.00;;;;;;;6.09;71.87;97414.03;4985066;28;20281;-70
2023/12/15 03:21:34;;;;;;;6.07;4.33;;;;;;;6.07;71.70;97414.94;4972979;28;20267;-70
2023/12/15 03:24:01;;;;;;;6.90;3.93;;;;;;;6.06;71.48;97408.88;4973660;28;20342;-70
2023/12/15 03:26:26;;;;;;;5.70;4.57;;;;;;;5.89;71.62;97418.56;4974311;28;20454;-69
2023/12/15 03:28:52;;;;;;;6.17;4.70;;;;;;;5.92;71.26;97421.13;4992521;28;20248;-70
2023/12/15 03:31:18;;;;;;;7.50;4.40;;;;;;;6.03;71.33;97419.31;4996269;28;20280;-69
2023/12/15 03:33:43;;;;;;;5.13;4.63;;;;;;;5.99;70.83;97422.81;4993764;28;20404;-69
2023/12/15 03:36:09;;;;;;;5.80;4.13;;;;;;;5.97;71.14;97432.41;4993352;28;20173;-69
2023/12/15 03:38:34;;;;;;;6.33;3.87;;;;;;;5.94;70.87;97432.44;4995527;28;20244;-69
2023/12/15 03:41:00;;;;;;;6.97;4.40;;;;;;;5.97;70.82;97442.81;4996249;28;20239;-69
2023/12/15 03:43:25;;;;;;;6.67;4.03;;;;;;;6.01;71.10;97441.91;4996903;28;20180;-69
2023/12/15 03:45:51;;;;;;;6.10;4.73;;;;;;;5.98;70.71;97438.50;4998022;28;20172;-69
2023/12/15 03:48:16;;;;;;;5.40;3.27;;;;;;;5.97;70.52;97444.56;4998576;28;20169;-68
2023/12/15 03:50:41;;;;;;;5.70;4.97;;;;;;;5.91;70.57;97446.31;4998591;28;20347;-70
2023/12/15 03:53:07;;;;;;;9.20;4.30;;;;;;;5.85;70.77;97448.97;4998745;28;20177;-70
2023/12/15 03:55:32;;;;;;;5.60;3.50;;;;;;;5.91;70.79;97450.66;4998952;28;20185;-69
2023/12/15 03:57:57;;;;;;;7.70;5.73;;;;;;;5.86;71.12;97462.88;4993697;28;20268;-70
2023/12/15 04:00:23;;;;;;;6.50;4.70;;;;;;;5.78;71.52;97462.91;4992182;28;20189;-70
2023/12/15 04:02:48;;;;;;;6.40;3.90;;;;;;;5.87;71.66;97472.41;4992330;28;20692;-69
2023/12/15 04:05:14;;;;;;;6.67;4.53;;;;;;;5.90;71.54;97470.63;4991992;28;20228;-70
2023/12/15 04:07:39;;;;;;;5.87;4.13;;;;;;;5.94;70.41;97468.91;4992769;28;20181;-70
2023/12/15 04:10:05;;;;;;;6.20;4.60;;;;;;;5.85;71.02;97464.59;4991966;28;20314;-68
2023/12/15 04:12:30;;;;;;;9.60;4.40;;;;;;;5.80;70.97;97471.59;4992106;28;20177;-68
2023/12/15 04:14:56;;;;;;;6.70;4.30;;;;;;;5.78;71.24;97468.13;4991148;28;20215;-70
2023/12/15 04:17:22;;;;;;;10.50;5.73;;;;;;;5.81;70.91;97475.03;4992785;28;20986;-71
2023/12/15 04:19:47;;;;;;;7.67;5.90;;;;;;;5.78;70.79;97473.34;5004272;28;20204;-68
2023/12/15 04:22:12;;;;;;;14.60;6.73;;;;;;;5.72;71.48;97471.66;5011515;28;20231;-70
2023/12/15 04:24:38;;;;;;;9.53;6.50;;;;;;;5.69;71.26;97478.59;5011694;28;20636;-71
2023/12/15 04:27:03;;;;;;;7.07;5.53;;;;;;;5.71;71.71;97480.31;4999058;28;20172;-70
2023/12/15 04:29:29;;;;;;;9.27;5.80;;;;;;;5.80;70.84;97486.34;4971654;28;20181;-70
2023/12/15 04:31:54;;;;;;;15.83;5.60;;;;;;;5.81;71.22;97493.28;4972404;28;20657;-69
2023/12/15 04:34:19;;;;;;;8.00;4.93;;;;;;;5.81;70.63;97498.50;4975403;28;20177;-69
2023/12/15 04:36:45;;;;;;;8.10;4.80;;;;;;;5.79;70.55;97498.53;4977648;28;20180;-70
2023/12/15 04:39:10;;;;;;;8.57;5.43;;;;;;;5.80;70.87;97507.19;4976395;28;20204;-69
2023/12/15 04:41:35;;;;;;;9.57;5.20;;;;;;;5.76;71.48;97506.34;4978320;28;20197;-71
2023/12/15 04:44:01;;;;;;;4.67;4.17;;;;;;;5.75;71.07;97515.03;4977378;28;20205;-68
2023/12/15 04:46:30;;;;;;;8.17;5.50;;;;;;;5.62;72.17;97522.09;4976038;28;20260;-69
2023/12/15 04:48:59;;;;;;;6.03;3.93;;;;;;;5.76;71.88;97528.91;4975821;28;20609;-69
2023/12/15 04:51:25;;;;;;;4.97;3.93;;;;;;;5.70;72.28;97533.28;4975883;28;20468;-69
2023/12/15 04:53:50;;;;;;;5.70;3.63;;;;;;;5.80;72.25;97528.03;4975897;28;20409;-69
2023/12/15 04:56:16;;;;;;;7.97;4.60;;;;;;;5.72;72.35;97528.09;4973780;28;20612;-68
2023/12/15 04:58:42;;;;;;;5.10;3.73;;;;;;;5.77;72.22;97533.28;4971925;28;20206;-69
2023/12/15 05:01:12;;;;;;;7.90;4.40;;;;;;;5.80;71.84;97538.44;4971597;28;20935;-70
2023/12/15 05:03:39;;;;;;;8.80;5.93;;;;;;;5.58;72.51;97543.78;4971408;28;20173;-70
2023/12/15 05:06:04;;;;;;;5.73;5.10;;;;;;;5.64;72.67;97548.09;4986796;28;20440;-70
2023/12/15 05:08:30;;;;;;;8.97;5.10;;;;;;;5.68;72.56;97550.66;4972511;28;20448;-68
2023/12/15 05:10:55;;;;;;;7.90;6.00;;;;;;;5.80;71.62;97538.44;4971490;28;20288;-70
2023/12/15 05:13:20;;;;;;;5.93;4.77;;;;;;;5.82;71.43;97544.53;4972074;28;20197;-71
2023/12/15 05:15:46;;;;;;;5.43;4.67;;;;;;;5.77;70.77;97554.09;4970279;28;20228;-69
2023/12/15 05:18:11;;;;;;;7.63;5.47;;;;;;;5.84;70.77;97556.66;4971231;28;20212;-68
2023/12/15 05:20:38;;;;;;;9.80;5.27;;;;;;;5.85;70.81;97554.91;4971390;28;20209;-71
2023/12/15 05:23:03;;;;;;;7.57;5.27;;;;;;;5.67;71.28;97564.56;4973489;28;20538;-68
2023/12/15 05:25:29;;;;;;;5.70;4.37;;;;;;;5.82;70.86;97565.34;4971930;28;20519;-70
2023/12/15 05:27:55;;;;;;;8.47;4.70;;;;;;;5.65;70.88;97571.53;4978363;28;20330;-69
2023/12/15 05:30:20;;;;;;;9.27;6.83;;;;;;;5.78;70.63;97579.25;4979300;28;20280;-69
2023/12/15 05:32:45;;;;;;;28.00;6.73;;;;;;;5.72;70.35;97581.03;4990485;28;20173;-69
2023/12/15 05:35:11;;;;;;;5.20;4.27;;;;;;;5.78;71.46;97580.13;4991060;28;20169;-69
2023/12/15 05:37:36;;;;;;;7.90;5.17;;;;;;;5.75;72.42;97574.09;4989699;28;20224;-69
2023/12/15 05:40:02;;;;;;;6.40;3.80;;;;;;;5.66;72.64;97575.84;4990566;28;20201;-70
2023/12/15 05:42:27;;;;;;;5.60;4.63;;;;;;;5.77;72.68;97590.56;4989608;28;20173;-69
2023/12/15 05:44:52;;;;;;;5.97;4.07;;;;;;;5.91;71.84;97589.59;4990753;28;20204;-69
2023/12/15 05:47:18;;;;;;;7.30;5.50;;;;;;;5.91;71.78;97589.59;4990612;28;20161;-69
2023/12/15 05:49:43;;;;;;;6.80;4.40;;;;;;;5.83;70.92;97593.13;4990000;28;20203;-71
2023/12/15 05:52:09;;;;;;;4.63;3.90;;;;;;;5.93;71.73;97600.03;4991570;28;20173;-69
2023/12/15 05:54:38;;;;;;;8.03;6.00;;;;;;;5.85;71.94;97609.63;4991277;28;20204;-68
2023/12/15 05:57:03;;;;;;;6.10;5.00;;;;;;;5.90;71.87;97618.25;4991434;28;20866;-69
2023/12/15 05:59:29;;;;;;;6.40;5.80;;;;;;;5.90;72.00;97626.94;4997362;28;20413;-69
2023/12/15 06:01:54;;;;;;;7.60;5.33;;;;;;;5.96;71.45;97628.69;4995613;28;20223;-68
2023/12/15 06:04:20;;;;;;;9.20;5.10;;;;;;;6.00;71.06;97630.41;4996618;28;20204;-69
2023/12/15 06:06:45;;;;;;;6.40;5.40;;;;;;;5.99;70.97;97622.59;4996144;28;20251;-69
2023/12/15 06:09:10;;;;;;;5.20;4.40;;;;;;;5.82;70.75;97626.13;4991909;28;20292;-70
2023/12/15 06:11:40;;;;;;;6.87;4.67;;;;;;;5.81;71.89;97633.94;4991853;28;20196;-70
2023/12/15 06:14:06;;;;;;;8.70;5.30;;;;;;;5.84;70.95;97642.63;4992289;28;20185;-69
2023/12/15 06:16:31;;;;;;;5.93;4.67;;;;;;;5.79;70.48;97648.72;4994400;28;20422;-69
2023/12/15 06:18:57;;;;;;;7.00;5.03;;;;;;;5.86;71.36;97653.03;4999345;28;20270;-67
2023/12/15 06:21:24;;;;;;;6.47;5.17;;;;;;;5.96;70.69;97662.56;4998576;28;20196;-70
2023/12/15 06:23:50;;;;;;;6.30;4.97;;;;;;;5.93;69.91;97663.41;4998290;28;20181;-70
2023/12/15 06:26:22;;;;;;;6.30;4.67;;;;;;;5.84;70.68;97667.81;4997479;28;20427;-69
2023/12/15 06:28:48;;;;;;;6.27;5.00;;;;;;;5.86;70.39;97669.53;4983043;28;20173;-69
2023/12/15 06:31:14;;;;;;;9.27;5.17;;;;;;;5.91;70.16;97678.19;4977590;28;20447;-69
2023/12/15 06:33:40;;;;;;;8.27;6.30;;;;;;;5.96;69.53;97685.16;4978164;28;20416;-70
2023/12/15 06:36:07;;;;;;;10.87;5.80;;;;;;;5.87;70.12;97683.41;4978092;28;20408;-69
2023/12/15 06:38:32;;;;;;;11.00;7.03;;;;;;;5.93;69.78;97683.41;4977396;28;20286;-70
2023/12/15 06:40:58;;;;;;;8.13;5.10;;;;;;;5.91;69.44;97693.81;4978042;28;20524;-70
2023/12/15 06:43:23;;;;;;;8.13;5.93;;;;;;;5.95;69.42;97697.28;4979157;28;20181;-68
2023/12/15 06:45:48;;;;;;;7.27;5.03;;;;;;;5.96;69.19;97701.66;4985045;28;20264;-68
2023/12/15 06:48:14;;;;;;;16.60;6.00;;;;;;;5.94;69.01;97711.22;4982505;28;20173;-69
2023/12/15 06:50:39;;;;;;;7.10;5.70;;;;;;;5.95;69.48;97715.53;4989579;28;20227;-69
2023/12/15 06:53:05;;;;;;;11.50;5.30;;;;;;;5.91;69.65;97725.09;4991134;28;20187;-70
2023/12/15 06:55:30;;;;;;;8.83;5.90;;;;;;;5.97;68.66;97723.34;4990077;28;20169;-69
2023/12/15 06:57:55;;;;;;;8.10;5.37;;;;;;;5.96;68.89;97726.84;4988702;28;20211;-67
2023/12/15 07:00:21;;;;;;;11.80;5.20;;;;;;;6.00;69.09;97734.63;4981590;28;20220;-69
2023/12/15 07:02:46;;;;;;;21.27;6.00;;;;;;;5.97;68.61;97739.84;4990779;28;20204;-70
2023/12/15 07:05:12;;;;;;;12.33;5.30;;;;;;;6.01;68.20;97740.72;4991276;28;20177;-69
2023/12/15 07:07:37;;;;;;;7.20;5.27;;;;;;;5.93;68.74;97740.72;4989687;28;20186;-70
2023/12/15 07:10:03;;;;;;;7.80;5.10;;;;;;;5.89;69.73;97752.00;4992315;28;20201;-69
2023/12/15 07:12:29;;;;;;;9.83;5.23;;;;;;;5.92;69.04;97752.00;4986147;28;20168;-69
2023/12/15 07:14:55;;;;;;;6.03;5.30;;;;;;;5.88;69.43;97763.28;4993331;28;20426;-69
2023/12/15 07:17:20;;;;;;;6.17;5.27;;;;;;;5.88;69.08;97765.91;4989885;28;20242;-69
2023/12/15 07:19:46;;;;;;;7.73;5.17;;;;;;;5.92;69.49;97765.03;4990642;28;20292;-70
2023/12/15 07:22:13;;;;;;;6.90;5.00;;;;;;;5.94;69.41;97768.53;4976871;28;20162;-69
2023/12/15 07:24:40;;;;;;;7.17;5.30;;;;;;;5.97;69.64;97767.66;4978118;28;20431;-71
2023/12/15 07:27:06;;;;;;;13.40;5.70;;;;;;;5.91;69.58;97765.91;4990317;28;20455;-69
2023/12/15 07:29:31;;;;;;;6.97;5.33;;;;;;;5.83;69.93;97778.06;4988961;28;20462;-70
2023/12/15 07:31:57;;;;;;;8.50;5.43;;;;;;;5.93;69.64;97787.63;4987658;28;20491;-70
2023/12/15 07:34:22;;;;;;;6.70;5.47;;;;;;;5.90;69.56;97785.84;4987332;28;20181;-68
2023/12/15 07:36:47;;;;;;;7.50;5.53;;;;;;;5.73;70.11;97788.50;4982393;28;20559;-69
2023/12/15 07:39:13;;;;;;;9.77;5.43;;;;;;;5.77;70.21;97794.59;4985195;28;20181;-69
2023/12/15 07:41:42;;;;;;;6.90;5.50;;;;;;;5.79;70.21;97792.88;4988494;28;20706;-69
2023/12/15 07:44:07;;;;;;;6.47;5.40;;;;;;;5.74;70.20;97799.81;4980888;28;20284;-70
2023/12/15 07:46:33;;;;;;;7.27;4.93;;;;;;;5.71;70.09;97805.88;4982201;28;20496;-69
2023/12/15 07:48:59;;;;;;;10.03;5.97;;;;;;;5.84;70.58;97811.09;4989890;28;20260;-70
2023/12/15 07:51:24;;;;;;;6.77;4.90;;;;;;;5.85;70.33;97813.66;4991180;28;20523;-69
2023/12/15 07:53:50;;;;;;;7.93;5.33;;;;;;;5.76;69.86;97831.91;4990524;28;20187;-70
2023/12/15 07:56:22;;;;;;;7.47;5.13;;;;;;;5.80;69.41;97819.78;4990086;28;20196;-69
2023/12/15 07:58:52;;;;;;;10.03;5.00;;;;;;;5.75;69.41;97822.38;4991459;28;20212;-69
2023/12/15 08:01:18;;;;;;;7.03;4.87;;;;;;;5.69;69.38;97820.66;4986517;28;20464;-70
2023/12/15 08:03:44;;;;;;;8.50;5.40;;;;;;;5.79;68.98;97825.84;4986352;28;20584;-69
2023/12/15 08:06:11;;;;;;;7.13;5.20;;;;;;;5.77;68.50;97825.84;4981452;28;20938;-69
2023/12/15 08:08:38;;;;;;;8.07;5.70;;;;;;;5.88;68.67;97824.09;4991175;28;20546;-70
2023/12/15 08:11:04;;;;;;;6.57;5.40;;;;;;;5.83;68.96;97833.63;4989427;28;20456;-69
2023/12/15 08:13:30;;;;;;;7.53;5.27;;;;;;;5.86;69.33;97832.78;4985386;28;20455;-68
2023/12/15 08:15:55;;;;;;;7.10;5.10;;;;;;;5.84;69.19;97835.38;4991819;28;20463;-70
2023/12/15 08:18:21;;;;;;;7.50;5.80;;;;;;;5.83;69.19;97832.78;4989468;28;20254;-69
2023/12/15 08:20:47;;;;;;;6.80;5.87;;;;;;;5.85;69.63;97838.84;4989988;28;20232;-70
2023/12/15 08:23:13;;;;;;;14.13;6.63;;;;;;;6.04;69.42;97824.94;4992299;28;20172;-72
2023/12/15 08:25:39;;;;;;;9.23;6.20;;;;;;;6.06;69.28;97824.94;4990855;28;20470;-69
2023/12/15 08:28:04;;;;;;;7.30;6.13;;;;;;;6.02;69.21;97820.59;4991474;28;20583;-69
2023/12/15 08:30:29;;;;;;;9.43;6.20;;;;;;;6.00;69.29;97833.66;4989892;28;20208;-69
2023/12/15 08:32:55;;;;;;;9.37;6.63;;;;;;;5.91;70.03;97837.13;4991812;28;20277;-70
2023/12/15 08:35:20;;;;;;;9.23;5.07;;;;;;;5.99;69.87;97847.53;4987284;28;20213;-69
2023/12/15 08:37:46;;;;;;;11.57;5.83;;;;;;;6.00;69.85;97849.28;4988962;28;20207;-70
2023/12/15 08:40:11;;;;;;;13.13;6.10;;;;;;;6.06;69.70;97853.59;4990871;28;20196;-70
2023/12/15 08:42:37;;;;;;;7.67;6.73;;;;;;;6.04;69.64;97848.38;4989806;28;20181;-70
2023/12/15 08:45:03;;;;;;;8.63;6.70;;;;;;;6.01;69.45;97850.16;4990281;28;20185;-70
2023/12/15 08:47:28;;;;;;;7.57;5.93;;;;;;;5.98;69.61;97851.03;4990348;28;20181;-69
2023/12/15 08:49:53;;;;;;;12.67;5.67;;;;;;;5.93;69.76;97855.34;4988628;28;20181;-68
2023/12/15 08:52:19;;;;;;;6.70;4.80;;;;;;;5.90;69.92;97856.19;4989925;28;20199;-70
2023/12/15 08:54:44;;;;;;;10.13;5.83;;;;;;;5.97;69.49;97864.06;4989287;28;20546;-71
2023/12/15 08:57:10;;;;;;;13.83;5.63;;;;;;;6.02;69.95;97868.38;4988642;28;20219;-70
2023/12/15 08:59:35;;;;;;;7.70;5.03;;;;;;;6.15;69.83;97864.00;4989723;28;20877;-68
2023/12/15 09:02:00;;;;;;;11.13;5.80;;;;;;;5.84;70.19;97868.41;4991270;28;20299;-69
2023/12/15 09:04:26;;;;;;;8.03;5.10;;;;;;;6.14;69.94;97867.47;4987444;28;21107;-70
2023/12/15 09:06:51;;;;;;;17.90;6.53;;;;;;;6.32;69.17;97871.78;4984323;28;20181;-69
2023/12/15 09:09:17;;;;;;;7.90;5.57;;;;;;;6.32;68.66;97879.59;4991398;28;20208;-69
2023/12/15 09:11:42;;;;;;;8.73;5.63;;;;;;;6.35;68.18;97874.38;4989587;28;20215;-71
2023/12/15 09:14:08;;;;;;;6.20;5.60;;;;;;;6.38;67.61;97876.09;4990297;28;20176;-68
2023/12/15 09:16:33;;;;;;;12.63;6.10;;;;;;;6.34;67.68;97872.66;4988410;28;20183;-70
2023/12/15 09:18:59;;;;;;;9.20;5.63;;;;;;;6.44;68.16;97874.34;4989680;28;20220;-68
2023/12/15 09:21:24;;;;;;;6.47;5.20;;;;;;;6.45;68.72;97880.41;4989755;28;20240;-68
2023/12/15 09:23:50;;;;;;;9.50;5.47;;;;;;;6.50;67.86;97876.06;4991497;28;20268;-70
2023/12/15 09:26:15;;;;;;;12.30;5.60;;;;;;;6.50;67.94;97868.25;4994382;28;20235;-69
2023/12/15 09:28:40;;;;;;;9.93;5.77;;;;;;;6.54;68.08;97865.63;4995215;28;20256;-69
2023/12/15 09:31:07;;;;;;;11.40;5.30;;;;;;;6.72;66.94;97862.03;4994910;28;20521;-69
2023/12/15 09:33:32;;;;;;;9.33;5.70;;;;;;;6.89;66.76;97869.78;4998384;28;20271;-70
2023/12/15 09:35:58;;;;;;;32.43;7.43;;;;;;;6.91;65.97;97875.00;5005213;28;20533;-69
2023/12/15 09:38:24;;;;;;;14.10;6.37;;;;;;;7.67;64.35;97870.09;5006687;28;20204;-70
2023/12/15 09:40:49;;;;;;;18.30;6.80;;;;;;;7.69;63.40;97871.81;5000367;28;20452;-70
2023/12/15 09:43:15;;;;;;;15.87;7.83;;;;;;;7.65;63.46;97877.94;4989666;28;20185;-70
2023/12/15 09:45:40;;;;;;;15.47;5.83;;;;;;;7.63;64.31;97880.56;4994733;28;20185;-70
2023/12/15 09:48:06;;;;;;;10.07;5.80;;;;;;;7.61;64.35;97878.84;5013575;28;20547;-69
2023/12/15 09:50:33;;;;;;;6.23;5.60;;;;;;;7.49;64.54;97876.31;4990524;28;20240;-69
2023/12/15 09:53:02;;;;;;;6.33;5.40;;;;;;;7.28;65.66;97870.41;4989556;28;20435;-70
2023/12/15 09:55:31;;;;;;;6.90;5.40;;;;;;;7.24;65.86;97875.66;4983669;28;20416;-70
2023/12/15 09:57:58;;;;;;;10.23;5.40;;;;;;;7.37;65.15;97867.72;4986367;28;20484;-70
2023/12/15 10:00:24;;;;;;;7.70;6.03;;;;;;;7.27;66.19;97876.47;4989904;28;20447;-69
2023/12/15 10:02:49;;;;;;;9.63;6.43;;;;;;;7.28;67.20;97877.38;4990020;28;20428;-70
2023/12/15 10:05:15;;;;;;;6.20;5.57;;;;;;;7.31;67.06;97888.66;4984780;28;20203;-70
2023/12/15 10:07:40;;;;;;;6.70;6.00;;;;;;;7.37;66.90;97891.22;4988332;28;20283;-70
2023/12/15 10:10:06;;;;;;;10.10;7.07;;;;;;;7.43;66.14;97891.16;4982740;28;20216;-70
2023/12/15 10:12:31;;;;;;;13.07;7.50;;;;;;;7.50;66.32;97893.75;4989754;28;20370;-70
2023/12/15 10:14:57;;;;;;;11.50;7.10;;;;;;;7.35;66.57;97886.91;4988043;28;20699;-69
2023/12/15 10:17:22;;;;;;;15.20;7.57;;;;;;;7.40;66.60;97896.44;4986594;28;20205;-70
2023/12/15 10:19:48;;;;;;;13.37;6.70;;;;;;;7.35;65.37;97895.59;4989271;28;20188;-70
2023/12/15 10:22:13;;;;;;;12.47;6.20;;;;;;;7.39;65.50;97886.88;4990273;28;20177;-69
2023/12/15 10:24:39;;;;;;;8.23;6.07;;;;;;;7.50;65.99;97888.53;4990150;28;20216;-70
2023/12/15 10:27:07;;;;;;;7.30;4.83;;;;;;;7.42;65.95;97875.53;4989848;28;20203;-72
2023/12/15 10:29:33;;;;;;;13.40;5.17;;;;;;;7.41;66.09;97881.63;4988857;28;20188;-69
2023/12/15 10:31:59;;;;;;;21.40;6.70;;;;;;;7.50;65.71;97886.78;4982425;28;20462;-71
2023/12/15 10:34:26;;;;;;;19.07;6.00;;;;;;;7.45;66.06;97882.47;4986271;28;20181;-70
2023/12/15 10:36:53;;;;;;;23.50;6.90;;;;;;;7.49;65.84;97877.22;4991879;28;20271;-69
2023/12/15 10:39:19;;;;;;;8.30;5.87;;;;;;;7.49;66.59;97887.66;4992367;28;20438;-70
2023/12/15 10:41:45;;;;;;;10.77;6.13;;;;;;;7.35;67.30;97889.50;4991057;28;20551;-70
2023/12/15 10:44:14;;;;;;;10.40;6.77;;;;;;;7.48;66.59;97903.34;4993641;28;20506;-72
2023/12/15 10:46:44;;;;;;;10.30;6.13;;;;;;;7.51;65.71;97909.41;4993217;28;20703;-70
2023/12/15 10:49:10;;;;;;;9.33;6.50;;;;;;;7.36;66.27;97899.94;4991925;28;20441;-70
2023/12/15 10:51:40;;;;;;;9.27;6.20;;;;;;;7.26;66.64;97900.88;4992369;28;20432;-70
2023/12/15 10:54:07;;;;;;;8.47;6.80;;;;;;;7.27;66.19;97902.59;4988181;28;20878;-70
2023/12/15 10:56:37;;;;;;;7.00;5.80;;;;;;;7.38;66.44;97898.19;4991038;28;20431;-70
2023/12/15 10:59:05;;;;;;;10.57;6.70;;;;;;;7.40;66.63;97901.66;4991889;28;20460;-70
2023/12/15 11:01:33;;;;;;;15.67;6.97;;;;;;;7.52;67.10;97903.31;4991890;28;20817;-70
2023/12/15 11:03:59;;;;;;;15.50;7.43;;;;;;;7.51;67.62;97913.75;4992282;28;20447;-69
2023/12/15 11:06:26;;;;;;;18.47;8.80;;;;;;;7.55;66.94;97902.41;4992452;28;20431;-69
2023/12/15 11:08:52;;;;;;;12.30;7.57;;;;;;;7.60;66.91;97911.94;4992470;28;20424;-71
2023/12/15 11:11:22;;;;;;;10.87;6.50;;;;;;;7.72;66.15;97904.88;4991603;28;20443;-71
2023/12/15 11:13:59;;;;;;;9.53;6.50;;;;;;;7.68;66.61;97911.00;4986991;28;20435;-70
2023/12/15 11:16:28;;;;;;;18.80;7.77;;;;;;;7.70;66.38;97910.13;4990130;28;20419;-70
2023/12/15 11:18:55;;;;;;;14.57;6.50;;;;;;;7.44;66.42;97902.50;5030301;28;20560;-71
2023/12/15 11:21:20;;;;;;;14.10;7.43;;;;;;;7.48;66.71;97908.56;5028825;28;20972;-70
2023/12/15 11:23:58;;;;;;;43.53;9.43;;;;;;;7.58;66.24;97908.50;5032865;28;20449;-71
2023/12/15 11:26:37;;;;;;;13.63;7.27;;;;;;;7.59;65.96;97905.00;5015075;28;20274;-70
2023/12/15 11:29:12;;;;;;;9.67;6.00;;;;;;;7.50;65.88;97912.03;5032479;28;20422;-71
2023/12/15 11:31:40;;;;;;;11.60;6.57;;;;;;;7.46;65.77;97915.53;5032677;28;20437;-71